Time;durP1;ratioP1;P1;durP2;ratioP2;P2;SDS_P1;SDS_P2;PMS_P1;PMS_P2;Temp;Humidity;BMP_temperature;BMP_pressure;BME280_temperature;BME280_humidity;BME280_pressure;Samples;Min_cycle;Max_cycle;Signal;HPM_P1;HPM_P2
2022/04/15 00:02:09;;;;;;;;;6.00;5.75;;;;;18.43;49.05;101671.72;4807708;29;45502;-77
2022/04/15 00:07:56;;;;;;;;;6.50;6.00;;;;;18.39;49.39;101673.81;4806372;29;46547;-76
2022/04/15 00:10:23;;;;;;;;;5.25;5.00;;;;;18.34;48.87;101662.75;4807810;29;45650;-76
2022/04/15 00:12:55;;;;;;;;;5.50;5.00;;;;;18.37;49.31;101674.91;4807738;29;45541;-77
2022/04/15 00:15:20;;;;;;;;;6.25;6.25;;;;;18.29;48.95;101664.97;4807555;29;46421;-80
2022/04/15 00:17:45;;;;;;;;;6.00;6.00;;;;;18.35;49.40;101668.91;4807457;29;46037;-76
2022/04/15 00:20:12;;;;;;;;;5.50;5.50;;;;;18.28;49.61;101668.59;4807589;29;45611;-77
2022/04/15 00:22:38;;;;;;;;;5.00;4.50;;;;;18.30;49.12;101660.50;4807732;29;45714;-79
2022/04/15 00:25:04;;;;;;;;;6.00;5.50;;;;;18.28;49.44;101667.75;4807744;29;45604;-77
2022/04/15 00:27:29;;;;;;;;;7.00;6.00;;;;;18.23;49.88;101662.84;4807494;29;46072;-77
2022/04/15 00:29:55;;;;;;;;;7.75;6.25;;;;;18.24;49.31;101671.66;4807541;29;45717;-78
2022/04/15 00:32:20;;;;;;;;;5.50;4.25;;;;;18.18;49.66;101669.53;4807728;29;45811;-80
2022/04/15 00:38:07;;;;;;;;;6.00;4.00;;;;;18.17;49.61;101670.50;4807130;29;46076;-78
2022/04/15 00:40:33;;;;;;;;;6.75;5.50;;;;;18.14;49.76;101668.94;4807601;29;45596;-79
2022/04/15 00:42:59;;;;;;;;;5.25;5.00;;;;;18.12;50.05;101675.34;4807576;29;45693;-79
2022/04/15 00:45:24;;;;;;;;;5.75;5.75;;;;;17.99;50.08;101649.88;4807572;29;46510;-77
2022/04/15 00:47:53;;;;;;;;;6.75;6.00;;;;;18.06;50.29;101674.06;4807241;29;45510;-79
2022/04/15 00:50:27;;;;;;;;;5.00;5.00;;;;;17.95;50.41;101655.56;4806947;29;45859;-77
2022/04/15 00:52:57;;;;;;;;;6.00;6.00;;;;;18.01;50.34;101676.28;4807412;29;45761;-78
2022/04/15 00:55:23;;;;;;;;;5.75;5.75;;;;;17.97;50.16;101666.91;4806993;29;46633;-79
2022/04/15 00:58:00;;;;;;;;;6.00;6.00;;;;;17.88;50.47;101657.91;4806711;29;45626;-78
2022/04/15 01:00:27;;;;;;;;;6.00;6.00;;;;;17.93;49.89;101671.59;4806966;29;45723;-78
2022/04/15 01:02:53;;;;;;;;;5.00;5.00;;;;;17.87;49.92;101674.78;4807266;29;45547;-78
2022/04/15 01:08:41;;;;;;;;;6.50;6.00;;;;;17.89;50.49;101678.16;4805397;29;45999;-78
2022/04/15 01:11:10;;;;;;;;;9.00;8.00;;;;;17.88;50.15;101675.63;4807005;29;45696;-78
2022/04/15 01:13:36;;;;;;;;;7.00;7.00;;;;;17.87;50.40;101673.94;4807301;29;45526;-78
2022/04/15 01:16:01;;;;;;;;;8.50;7.75;;;;;17.87;50.69;101681.88;4807009;29;46554;-77
2022/04/15 01:18:27;;;;;;;;;8.50;7.75;;;;;17.81;51.06;101671.81;4806489;29;46032;-78
2022/04/15 01:20:53;;;;;;;;;9.00;8.00;;;;;17.80;50.74;101670.97;4807075;29;45612;-78
2022/04/15 01:23:19;;;;;;;;;6.50;6.00;;;;;17.77;50.60;101670.38;4807052;29;45796;-77
2022/04/15 01:25:45;;;;;;;;;6.00;5.00;;;;;17.66;50.96;101658.03;4806874;29;46362;-77
2022/04/15 01:28:11;;;;;;;;;6.50;5.00;;;;;17.78;50.70;101678.22;4806613;29;46141;-77
2022/04/15 01:30:37;;;;;;;;;4.00;4.00;;;;;17.77;50.66;101670.38;4807124;29;45664;-78
2022/04/15 01:33:03;;;;;;;;;6.50;5.00;;;;;17.75;50.46;101675.00;4807066;29;45532;-77
2022/04/15 01:38:50;;;;;;;;;6.00;5.50;;;;;17.70;50.90;101667.44;4806234;29;45991;-76
2022/04/15 01:41:15;;;;;;;;;7.75;6.00;;;;;17.70;50.55;101675.38;4806581;29;46040;-76
2022/04/15 01:43:40;;;;;;;;;6.25;6.00;;;;;17.69;50.53;101673.69;4806556;29;45755;-77
2022/04/15 01:46:06;;;;;;;;;8.00;6.50;;;;;17.59;50.59;101660.38;4789377;29;47635;-76
2022/04/15 01:48:31;;;;;;;;;6.50;6.00;;;;;17.66;50.93;101668.63;4806421;29;45608;-75
2022/04/15 01:50:57;;;;;;;;;7.50;7.50;;;;;17.61;51.06;101662.88;4806368;29;45672;-79
2022/04/15 01:53:22;;;;;;;;;5.25;4.75;;;;;17.64;51.12;101669.75;4806790;29;45446;-77
2022/04/15 01:55:48;;;;;;;;;8.00;8.00;;;;;17.64;50.72;101673.25;4806608;29;45573;-76
2022/04/15 01:58:14;;;;;;;;;7.50;7.25;;;;;17.66;50.94;101673.09;4806264;29;46115;-78
2022/04/15 02:00:39;;;;;;;;;8.25;6.50;;;;;17.41;50.68;101637.19;4789899;29;45700;-77
2022/04/15 02:03:04;;;;;;;;;6.50;5.75;;;;;17.63;50.79;101670.72;4806625;29;45875;-78
2022/04/15 02:08:52;;;;;;;;;7.00;6.75;;;;;17.60;50.86;101666.50;4805356;29;45715;-78
2022/04/15 02:11:17;;;;;;;;;9.00;7.00;;;;;17.59;51.15;101672.75;4806391;29;45590;-78
2022/04/15 02:13:43;;;;;;;;;7.00;7.00;;;;;17.57;51.03;101674.69;4806252;29;45468;-76
2022/04/15 02:16:09;;;;;;;;;7.00;7.00;;;;;17.40;51.25;101646.94;4805517;29;47561;-76
2022/04/15 02:18:34;;;;;;;;;9.50;8.75;;;;;17.54;51.29;101673.09;4805897;29;45518;-76
2022/04/15 02:24:21;;;;;;;;;9.75;8.00;;;;;17.37;51.23;101655.16;4806034;29;45574;-76
2022/04/15 02:26:46;;;;;;;;;8.25;6.00;;;;;17.49;51.04;101682.44;4805753;29;46288;-76
2022/04/15 02:29:12;;;;;;;;;6.75;5.75;;;;;17.34;51.22;101662.50;4789407;29;47700;-77
2022/04/15 02:31:37;;;;;;;;;11.25;9.50;;;;;17.45;51.58;101676.53;4806231;29;45750;-78
2022/04/15 02:34:03;;;;;;;;;10.25;9.75;;;;;17.43;51.60;101681.13;4789573;29;45539;-77
2022/04/15 02:36:28;;;;;;;;;9.50;9.50;;;;;17.42;51.71;101679.44;4805769;29;46489;-79
2022/04/15 02:38:54;;;;;;;;;10.00;10.00;;;;;17.41;51.75;101674.28;4805729;29;45925;-78
2022/04/15 02:41:19;;;;;;;;;7.00;7.00;;;;;17.35;51.79;101670.31;4805803;29;45516;-78
2022/04/15 02:43:45;;;;;;;;;9.00;7.00;;;;;17.30;52.27;101656.63;4806147;29;45735;-78
2022/04/15 02:46:12;;;;;;;;;9.00;9.00;;;;;17.32;52.32;101669.75;4805743;29;46207;-78
2022/04/15 02:48:38;;;;;;;;;8.00;8.00;;;;;17.36;52.51;101679.09;4805820;29;46537;-79
2022/04/15 02:54:25;;;;;;;;;8.25;7.50;;;;;17.26;53.10;101681.69;4805643;29;45712;-78
2022/04/15 02:56:51;;;;;;;;;8.25;8.25;;;;;17.24;53.22;101680.94;4805487;29;45691;-78
2022/04/15 02:59:20;;;;;;;;;8.00;8.00;;;;;17.14;53.92;101674.72;4805546;29;46112;-76
2022/04/15 03:01:46;;;;;;;;;9.50;8.00;;;;;17.09;53.92;101679.56;4805902;29;45698;-78
2022/04/15 03:04:11;;;;;;;;;7.00;7.00;;;;;17.02;53.97;101676.56;4805631;29;45449;-76
2022/04/15 03:09:58;;;;;;;;;7.00;7.00;;;;;16.94;54.29;101680.81;4803367;29;46034;-77
2022/04/15 03:12:23;;;;;;;;;8.50;8.50;;;;;16.93;54.25;101679.13;4805420;29;45784;-78
2022/04/15 03:14:53;;;;;;;;;8.00;7.25;;;;;16.88;54.52;101687.44;4805331;29;45597;-77
2022/04/15 03:17:18;;;;;;;;;9.75;9.25;;;;;16.79;54.68;101681.06;4805046;29;46327;-77
2022/04/15 03:19:44;;;;;;;;;12.75;10.75;;;;;16.75;55.02;101682.28;4804966;29;45964;-77
2022/04/15 03:22:09;;;;;;;;;15.50;11.50;;;;;16.63;55.20;101671.81;4805270;29;45511;-77
2022/04/15 03:24:34;;;;;;;;;8.25;8.00;;;;;16.61;55.49;101679.06;4805373;29;45515;-78
2022/04/15 03:27:00;;;;;;;;;8.75;7.75;;;;;16.56;55.45;101691.78;4805012;29;46416;-76
2022/04/15 03:29:25;;;;;;;;;8.75;7.75;;;;;16.42;55.85;101674.31;4804924;29;45935;-78
2022/04/15 03:31:51;;;;;;;;;6.75;6.50;;;;;16.43;56.03;101688.38;4803832;29;45628;-77
2022/04/15 03:34:16;;;;;;;;;9.50;8.50;;;;;16.39;56.04;101687.78;4805248;29;45595;-77
2022/04/15 03:40:05;;;;;;;;;10.00;10.00;;;;;16.25;56.60;101690.66;4805089;29;45862;-77
2022/04/15 03:42:30;;;;;;;;;9.00;9.00;;;;;16.19;56.47;101683.22;4805094;29;45841;-77
2022/04/15 03:44:55;;;;;;;;;10.25;9.25;;;;;16.16;56.74;101689.56;4805118;29;45590;-77
2022/04/15 03:47:21;;;;;;;;;13.00;10.25;;;;;16.06;56.86;101672.75;4804805;29;46634;-78
2022/04/15 03:49:47;;;;;;;;;11.25;9.75;;;;;16.12;57.11;101682.00;4804837;29;46361;-76
2022/04/15 03:55:34;;;;;;;;;11.50;11.00;;;;;15.97;56.88;101686.69;4804885;29;45646;-77
2022/04/15 03:57:59;;;;;;;;;14.00;12.25;;;;;15.92;57.69;101686.19;4804546;29;45670;-77
2022/04/15 04:00:25;;;;;;;;;13.75;12.00;;;;;15.91;57.44;101698.56;4804750;29;45918;-78
2022/04/15 04:02:54;;;;;;;;;10.25;9.00;;;;;15.86;57.52;101694.56;4804549;29;45700;-77
2022/04/15 04:05:21;;;;;;;;;12.00;11.50;;;;;15.82;57.84;101690.47;4804803;29;45580;-79
2022/04/15 04:07:47;;;;;;;;;11.50;10.25;;;;;15.81;57.90;101704.66;4804252;29;46571;-78
2022/04/15 04:10:13;;;;;;;;;11.75;11.00;;;;;15.68;57.92;101683.59;4804562;29;46009;-78
2022/04/15 04:12:40;;;;;;;;;9.75;9.00;;;;;15.75;58.53;101700.69;4804679;29;45801;-78
2022/04/15 04:15:07;;;;;;;;;12.00;9.75;;;;;15.71;57.83;101698.38;4804504;29;45685;-78
2022/04/15 04:17:32;;;;;;;;;10.50;9.25;;;;;15.66;58.39;101689.94;4804702;29;47965;-74
2022/04/15 04:19:58;;;;;;;;;11.50;10.00;;;;;15.70;58.19;101699.34;4804134;29;47102;-76
2022/04/15 04:25:45;;;;;;;;;11.75;10.00;;;;;15.64;58.32;101715.66;4804386;29;45629;-78
2022/04/15 04:28:11;;;;;;;;;10.75;10.25;;;;;15.62;58.40;101710.47;4803415;29;46839;-76
2022/04/15 04:30:36;;;;;;;;;8.00;8.00;;;;;15.60;58.52;101711.56;4804419;29;45591;-80
2022/04/15 04:33:02;;;;;;;;;14.00;13.00;;;;;15.60;58.95;101720.28;4804449;29;45686;-78
2022/04/15 04:35:27;;;;;;;;;11.25;9.25;;;;;15.47;58.35;101693.09;4804586;29;45696;-78
2022/04/15 04:41:14;;;;;;;;;13.00;12.00;;;;;15.57;58.45;101724.97;4804104;29;46001;-79
2022/04/15 04:43:40;;;;;;;;;12.00;10.50;;;;;15.56;58.94;101726.75;4805582;29;45576;-78
2022/04/15 04:46:06;;;;;;;;;12.50;12.50;;;;;15.48;58.39;101705.34;4807479;29;45635;-78
2022/04/15 04:48:32;;;;;;;;;12.25;10.50;;;;;15.55;58.19;101725.06;4807261;29;46348;-78
2022/04/15 04:50:58;;;;;;;;;14.00;14.00;;;;;15.35;58.60;101692.19;4807298;29;46141;-79
2022/04/15 04:53:23;;;;;;;;;13.75;13.00;;;;;15.52;58.84;101714.75;4807268;29;45664;-78
2022/04/15 04:55:49;;;;;;;;;11.75;11.00;;;;;15.49;59.04;101710.50;4807436;29;45555;-80
2022/04/15 04:58:14;;;;;;;;;15.00;13.00;;;;;15.56;58.83;101728.56;4807290;29;46704;-77
2022/04/15 05:00:39;;;;;;;;;13.00;12.00;;;;;15.48;58.89;101724.69;4807325;29;46349;-78
2022/04/15 05:03:05;;;;;;;;;12.25;12.00;;;;;15.51;58.76;101739.44;4807214;29;45594;-78
2022/04/15 05:05:30;;;;;;;;;13.00;12.75;;;;;15.49;58.93;101733.44;4807462;29;45652;-78
2022/04/15 05:11:17;;;;;;;;;12.75;12.75;;;;;15.49;58.92;101744.00;4807001;29;45803;-78
2022/04/15 05:13:42;;;;;;;;;11.25;11.25;;;;;15.50;59.19;101748.31;4812428;29;45563;-80
2022/04/15 05:16:08;;;;;;;;;13.25;12.00;;;;;15.39;59.18;101730.63;4807238;29;45578;-78
2022/04/15 05:18:34;;;;;;;;;12.50;11.75;;;;;15.48;59.34;101753.72;4807015;29;45699;-75
2022/04/15 05:21:00;;;;;;;;;13.00;11.50;;;;;15.46;59.08;101747.72;4806981;29;46138;-80
2022/04/15 05:26:47;;;;;;;;;15.00;13.75;;;;;15.48;59.43;101759.00;4806837;29;45668;-78
2022/04/15 05:29:12;;;;;;;;;13.50;13.00;;;;;15.45;59.40;101748.66;4806915;29;45632;-79
2022/04/15 05:31:38;;;;;;;;;12.00;11.25;;;;;15.47;58.94;101756.47;4807139;29;45684;-79
2022/04/15 05:34:04;;;;;;;;;14.00;12.25;;;;;15.50;59.08;101758.88;4790186;29;45597;-79
2022/04/15 05:36:29;;;;;;;;;13.50;12.75;;;;;15.51;59.23;101771.13;4807151;29;45666;-81
2022/04/15 05:38:55;;;;;;;;;12.00;11.00;;;;;15.42;59.38;101750.69;4806418;29;46011;-78
2022/04/15 05:41:23;;;;;;;;;15.00;12.00;;;;;15.50;59.32;101770.28;4806699;29;46445;-79
2022/04/15 05:43:49;;;;;;;;;11.50;10.50;;;;;15.51;58.97;101766.72;4806880;29;45764;-81
2022/04/15 05:46:15;;;;;;;;;12.00;10.75;;;;;15.47;58.85;101765.25;4806672;29;45562;-79
2022/04/15 05:48:40;;;;;;;;;11.50;10.50;;;;;15.47;58.89;101769.69;4790616;29;47011;-78
2022/04/15 05:51:06;;;;;;;;;12.50;10.25;;;;;15.52;58.67;101779.00;4806541;29;45560;-80
2022/04/15 05:56:53;;;;;;;;;12.00;8.75;;;;;15.49;58.77;101765.97;4806797;29;45519;-80
2022/04/15 05:59:21;;;;;;;;;12.25;10.50;;;;;15.52;58.60;101771.06;4809180;29;46655;-78
2022/04/15 06:01:52;;;;;;;;;11.00;11.00;;;;;15.51;58.37;101771.13;4807919;29;45637;-77
2022/04/15 06:04:18;;;;;;;;;13.75;11.00;;;;;15.55;58.59;101769.16;4806702;29;45540;-78
2022/04/15 06:06:43;;;;;;;;;12.50;11.50;;;;;15.61;58.58;101779.25;4807036;29;45577;-78
2022/04/15 06:09:09;;;;;;;;;12.00;11.50;;;;;15.51;58.45;101765.84;4806586;29;45730;-78
2022/04/15 06:11:34;;;;;;;;;13.00;12.25;;;;;15.66;58.33;101783.25;4806613;29;45537;-83
2022/04/15 06:14:03;;;;;;;;;12.25;11.50;;;;;15.69;58.29;101790.13;4807452;29;45608;-78
2022/04/15 06:16:32;;;;;;;;;16.50;14.50;;;;;15.63;58.48;101780.00;4806977;29;45630;-81
2022/04/15 06:18:58;;;;;;;;;15.50;14.75;;;;;15.75;58.52;101794.97;4806670;29;46584;-78
2022/04/15 06:21:24;;;;;;;;;17.00;15.25;;;;;15.78;58.72;101800.00;4806944;29;45977;-80
2022/04/15 06:27:11;;;;;;;;;15.00;14.50;;;;;15.76;58.68;101808.03;4806829;29;45689;-81
2022/04/15 06:29:36;;;;;;;;;15.75;15.50;;;;;15.71;58.86;101794.31;4807795;29;46519;-81
2022/04/15 06:32:05;;;;;;;;;18.00;17.50;;;;;15.19;58.74;101720.66;4807372;29;45647;-78
2022/04/15 06:34:36;;;;;;;;;17.75;17.00;;;;;15.73;58.88;101807.44;4790164;29;45782;-79
2022/04/15 06:37:04;;;;;;;;;16.75;16.75;;;;;15.52;58.75;101778.16;4806641;29;45897;-78
2022/04/15 06:39:51;;;;;;;;;18.00;15.75;;;;;15.11;59.19;101710.66;4789626;29;48097;-79
2022/04/15 06:42:21;;;;;;;;;16.25;15.25;;;;;15.71;58.95;101814.63;4805722;29;46955;-77
2022/04/15 06:44:47;;;;;;;;;15.75;14.50;;;;;15.69;58.91;101812.09;4806061;29;45645;-78
2022/04/15 06:47:12;;;;;;;;;17.25;16.50;;;;;15.69;58.89;101820.03;4806246;29;45505;-82
2022/04/15 06:49:37;;;;;;;;;16.00;15.00;;;;;15.64;59.17;101808.09;4806196;29;45538;-81
2022/04/15 06:52:03;;;;;;;;;16.00;15.00;;;;;15.56;58.98;101798.09;4806327;29;46053;-79
2022/04/15 06:57:50;;;;;;;;;17.00;16.00;;;;;15.62;59.04;101805.56;4805542;29;45652;-80
2022/04/15 07:00:16;;;;;;;;;20.00;16.75;;;;;15.65;58.92;101809.81;4789015;29;47377;-77
2022/04/15 07:02:41;;;;;;;;;17.00;16.00;;;;;15.73;58.96;101815.34;4805533;29;45711;-79
2022/04/15 07:05:09;;;;;;;;;18.50;16.75;;;;;15.74;59.09;101823.19;4789190;29;45785;-76
2022/04/15 07:07:41;;;;;;;;;17.00;16.00;;;;;15.74;58.94;101815.25;4805440;29;45505;-76
2022/04/15 07:10:08;;;;;;;;;15.50;15.00;;;;;15.75;58.93;101822.22;4805690;29;46611;-80
2022/04/15 07:12:34;;;;;;;;;16.50;16.00;;;;;15.66;58.83;101804.38;4806214;29;46351;-78
2022/04/15 07:15:00;;;;;;;;;20.00;18.00;;;;;15.70;58.82;101813.78;4806013;29;45804;-80
2022/04/15 07:17:26;;;;;;;;;16.25;15.00;;;;;15.73;58.53;101807.44;4789035;29;45705;-80
2022/04/15 07:19:51;;;;;;;;;17.00;16.25;;;;;15.84;58.65;101826.81;4805891;29;45718;-78
2022/04/15 07:22:20;;;;;;;;;15.25;14.50;;;;;15.88;58.67;101824.78;4805316;29;45988;-82
2022/04/15 07:28:08;;;;;;;;;21.75;18.75;;;;;15.88;58.54;101823.00;4805378;29;45725;-81
2022/04/15 07:30:33;;;;;;;;;16.25;15.75;;;;;15.95;58.26;101831.31;4806349;29;46154;-79
2022/04/15 07:32:59;;;;;;;;;16.50;15.00;;;;;15.99;58.16;101829.28;4805860;29;45939;-80
2022/04/15 07:35:25;;;;;;;;;17.75;16.75;;;;;16.03;58.20;101838.69;4805575;29;45707;-79
2022/04/15 07:37:51;;;;;;;;;20.00;17.50;;;;;16.06;58.00;101834.00;4805818;29;45613;-79
2022/04/15 07:40:16;;;;;;;;;16.00;15.00;;;;;16.11;58.11;101838.94;4805542;29;45678;-78
2022/04/15 07:42:42;;;;;;;;;17.75;16.25;;;;;16.14;57.96;101830.81;4805700;29;45980;-78
2022/04/15 07:45:08;;;;;;;;;18.50;18.50;;;;;16.02;57.77;101800.84;4806089;29;45626;-77
2022/04/15 07:47:33;;;;;;;;;18.75;15.75;;;;;16.20;57.68;101830.31;4805887;29;45557;-79
2022/04/15 07:49:59;;;;;;;;;18.50;18.00;;;;;16.17;57.71;101825.28;4806281;29;46455;-80
2022/04/15 07:52:24;;;;;;;;;20.00;18.00;;;;;16.29;57.43;101838.44;4806153;29;46480;-83
2022/04/15 07:58:11;;;;;;;;;19.50;19.00;;;;;16.27;57.65;101821.81;4807249;29;45695;-81
2022/04/15 08:00:39;;;;;;;;;18.00;17.25;;;;;16.30;57.25;101812.84;4806903;29;46253;-80
2022/04/15 08:03:05;;;;;;;;;20.50;18.00;;;;;16.42;57.32;101826.91;4806755;29;47533;-77
2022/04/15 08:05:30;;;;;;;;;18.00;17.50;;;;;16.52;57.25;101833.19;4790738;29;45686;-80
2022/04/15 08:07:56;;;;;;;;;17.50;16.00;;;;;16.54;56.98;101825.97;4808872;29;45626;-79
2022/04/15 08:10:23;;;;;;;;;23.00;19.50;;;;;16.62;56.91;101835.06;4809084;29;45648;-80
2022/04/15 08:12:49;;;;;;;;;21.00;19.00;;;;;16.58;57.25;101820.31;4807422;29;46215;-79
2022/04/15 08:15:14;;;;;;;;;18.00;18.00;;;;;16.62;56.80;101819.19;4806539;29;45616;-78
2022/04/15 08:17:39;;;;;;;;;22.50;20.25;;;;;16.73;56.65;101827.09;4808195;29;45780;-85
2022/04/15 08:20:06;;;;;;;;;22.00;20.00;;;;;16.83;56.73;101835.19;4810720;29;45624;-82
2022/04/15 08:22:35;;;;;;;;;16.25;15.25;;;;;16.86;56.37;101837.59;4810442;29;46191;-79
2022/04/15 08:28:22;;;;;;;;;14.50;12.75;;;;;16.92;55.28;101823.03;4812451;29;45826;-80
2022/04/15 08:30:47;;;;;;;;;9.25;9.25;;;;;17.06;55.37;101838.66;4811433;29;45578;-80
2022/04/15 08:33:13;;;;;;;;;9.00;8.00;;;;;17.11;54.57;101836.53;4812442;29;45488;-77
2022/04/15 08:35:39;;;;;;;;;10.00;8.00;;;;;17.14;54.51;101834.47;4812152;29;46076;-80
2022/04/15 08:38:06;;;;;;;;;10.50;9.00;;;;;17.12;54.41;101831.09;4812269;29;45776;-78
2022/04/15 08:43:54;;;;;;;;;13.25;11.75;;;;;17.29;54.46;101844.81;4811998;29;45776;-78
2022/04/15 08:46:21;;;;;;;;;12.75;11.25;;;;;17.27;54.20;101838.81;4810034;29;45617;-77
2022/04/15 08:48:49;;;;;;;;;11.00;10.75;;;;;17.36;53.87;101846.00;4823605;29;45948;-86
2022/04/15 08:51:15;;;;;;;;;12.50;10.75;;;;;17.32;53.72;101832.19;4825433;29;45583;-79
2022/04/15 08:53:41;;;;;;;;;15.00;15.00;;;;;17.45;54.21;101840.81;4822513;29;45362;-81
2022/04/15 08:56:06;;;;;;;;;12.00;10.50;;;;;17.44;53.77;101839.13;4819570;29;45667;-79
2022/04/15 08:58:32;;;;;;;;;15.00;14.50;;;;;17.46;53.19;101842.50;4819634;29;45473;-83
2022/04/15 09:00:57;;;;;;;;;14.75;12.25;;;;;17.56;53.46;101846.09;4824996;29;45596;-80
2022/04/15 09:03:23;;;;;;;;;10.00;8.00;;;;;17.57;53.29;101854.88;4823664;29;45862;-85
2022/04/15 09:05:52;;;;;;;;;7.00;7.00;;;;;17.60;52.88;101860.81;4824026;29;45720;-78
2022/04/15 09:08:18;;;;;;;;;8.50;7.75;;;;;17.65;53.25;101855.16;4818191;29;45794;-85
2022/04/15 09:14:20;;;;;;;;;6.50;6.00;;;;;17.69;52.57;101845.16;4808163;29;46354;-81
2022/04/15 09:16:47;;;;;;;;;6.00;5.00;;;;;17.76;52.51;101862.25;4809505;29;45523;-81
2022/04/15 09:19:13;;;;;;;;;5.75;5.50;;;;;17.77;52.28;101861.25;4808862;29;45752;-77
2022/04/15 09:21:49;;;;;;;;;5.50;5.25;;;;;17.82;52.18;101856.41;4808974;29;45767;-83
2022/04/15 09:24:15;;;;;;;;;7.00;6.00;;;;;17.87;52.45;101856.88;4809418;29;45419;-78
2022/04/15 09:26:44;;;;;;;;;4.00;3.75;;;;;17.67;52.50;101824.06;4807599;29;45718;-82
2022/04/15 09:29:12;;;;;;;;;6.00;4.25;;;;;17.88;51.76;101856.75;4808591;29;45686;-78
2022/04/15 09:31:37;;;;;;;;;11.50;9.50;;;;;17.92;51.63;101854.72;4808978;29;46676;-81
2022/04/15 09:34:03;;;;;;;;;5.75;5.00;;;;;17.96;51.62;101856.16;4808399;29;45526;-78
2022/04/15 09:36:34;;;;;;;;;3.75;3.75;;;;;18.01;51.55;101859.25;4808600;29;45505;-82
2022/04/15 09:39:14;;;;;;;;;7.25;7.00;;;;;17.78;52.16;101824.03;4810175;29;45674;-78
2022/04/15 09:41:49;;;;;;;;;4.75;4.75;;;;;17.93;51.66;101843.13;4808576;29;46651;-83
2022/04/15 09:44:14;;;;;;;;;6.00;5.75;;;;;18.08;51.61;101854.31;4791926;29;46546;-81
2022/04/15 09:46:46;;;;;;;;;8.00;6.00;;;;;18.03;51.63;101854.66;4791601;29;45587;-80
2022/04/15 09:49:12;;;;;;;;;5.25;5.25;;;;;18.13;51.45;101860.06;4807352;29;45756;-79
2022/04/15 09:51:45;;;;;;;;;5.75;5.00;;;;;18.16;51.56;101857.16;4807247;29;47511;-78
2022/04/15 09:54:19;;;;;;;;;6.00;5.00;;;;;18.16;51.72;101857.16;4808392;29;45919;-81
2022/04/15 09:56:46;;;;;;;;;4.25;3.75;;;;;18.23;51.74;101856.53;4807925;29;45653;-79
2022/04/15 09:59:15;;;;;;;;;7.00;5.25;;;;;18.22;51.27;101846.03;4806964;29;45663;-79
2022/04/15 10:01:44;;;;;;;;;6.00;4.25;;;;;18.30;50.90;101849.72;4806809;29;46471;-79
2022/04/15 10:04:10;;;;;;;;;6.50;5.00;;;;;18.32;51.00;101857.56;4806547;29;46079;-78
2022/04/15 10:06:38;;;;;;;;;8.00;7.00;;;;;18.36;51.23;101862.47;4806323;29;45679;-77
2022/04/15 10:09:06;;;;;;;;;7.00;5.75;;;;;18.39;50.81;101853.41;4806684;29;45763;-79
2022/04/15 10:11:35;;;;;;;;;9.25;7.00;;;;;18.20;50.70;101808.16;4806677;29;45853;-77
2022/04/15 10:14:02;;;;;;;;;6.50;5.00;;;;;18.45;50.74;101843.13;4806352;29;45968;-78
2022/04/15 10:16:29;;;;;;;;;5.00;5.00;;;;;18.56;50.70;101850.22;4805934;29;45789;-78
2022/04/15 10:18:58;;;;;;;;;6.00;5.50;;;;;18.57;50.63;101843.91;4806470;29;45547;-79
2022/04/15 10:21:24;;;;;;;;;5.00;5.00;;;;;18.50;50.85;101824.16;4789618;29;47473;-79
2022/04/15 10:23:49;;;;;;;;;6.75;6.50;;;;;18.61;49.98;101840.06;4806193;29;45725;-78
2022/04/15 10:29:36;;;;;;;;;6.50;5.50;;;;;18.74;50.47;101837.16;4806410;29;45550;-81
2022/04/15 10:32:13;;;;;;;;;4.75;4.75;;;;;18.76;50.23;101820.16;4806692;29;45942;-83
2022/04/15 10:34:47;;;;;;;;;5.00;5.00;;;;;18.85;49.39;101837.94;4806508;29;46094;-79
2022/04/15 10:37:13;;;;;;;;;6.25;5.75;;;;;18.89;49.96;101830.56;4806382;29;45672;-80
2022/04/15 10:39:50;;;;;;;;;6.25;5.75;;;;;18.86;49.65;101813.06;4789753;29;46009;-84
2022/04/15 10:42:19;;;;;;;;;5.00;3.00;;;;;19.00;49.41;101821.66;4807013;29;46317;-79
2022/04/15 10:44:45;;;;;;;;;4.00;4.00;;;;;19.05;49.10;101816.78;4807299;29;45908;-79
2022/04/15 10:47:24;;;;;;;;;5.00;4.00;;;;;19.14;48.80;101834.56;4808281;29;45633;-81
2022/04/15 10:50:06;;;;;;;;;5.50;4.00;;;;;19.19;48.62;101827.03;4808987;29;45820;-79
2022/04/15 10:52:36;;;;;;;;;6.50;5.75;;;;;19.19;48.55;101822.56;4808623;29;45603;-80
2022/04/15 10:55:03;;;;;;;;;5.00;5.00;;;;;19.26;48.00;101839.66;4807089;29;45632;-81
2022/04/15 10:57:35;;;;;;;;;7.00;5.00;;;;;19.29;48.20;101826.09;4806527;29;45575;-78
2022/04/15 11:02:49;;;;;;;;;2.75;2.75;;;;;19.37;47.92;101829.91;4806761;29;46072;-80
2022/04/15 11:05:32;;;;;;;;;3.25;3.25;;;;;19.31;48.00;101804.69;4806486;29;46122;-79
2022/04/15 11:08:04;;;;;;;;;5.25;4.75;;;;;19.53;47.64;101814.28;4805546;29;45576;-80
2022/04/15 11:11:07;;;;;;;;;7.00;5.75;;;;;19.64;47.92;101815.00;4805838;29;45698;-79
2022/04/15 11:13:53;;;;;;;;;6.75;4.25;;;;;19.75;46.90;101818.53;4805463;29;45793;-78
2022/04/15 11:16:21;;;;;;;;;5.00;4.00;;;;;19.81;46.82;101810.81;4804977;29;46151;-79
2022/04/15 11:18:59;;;;;;;;;3.00;2.50;;;;;19.84;46.08;101817.69;4788976;29;45688;-80
2022/04/15 11:21:36;;;;;;;;;3.00;2.00;;;;;19.86;45.36;101813.91;4805667;29;45678;-78
2022/04/15 11:24:12;;;;;;;;;2.00;2.00;;;;;19.87;45.81;101812.06;4805495;29;45623;-79
2022/04/15 11:26:43;;;;;;;;;2.00;2.00;;;;;19.88;45.16;101805.78;4805187;29;45818;-77
2022/04/15 11:29:11;;;;;;;;;1.25;1.00;;;;;19.88;44.90;101817.25;4805595;29;45620;-78
2022/04/15 11:31:41;;;;;;;;;1.50;1.50;;;;;19.82;44.26;101807.16;4805129;29;45763;-79
2022/04/15 11:34:09;;;;;;;;;2.00;1.00;;;;;19.86;43.92;101805.94;4805146;29;46770;-77
2022/04/15 11:36:42;;;;;;;;;1.00;1.00;;;;;19.90;43.89;101806.47;4805034;29;45527;-79
2022/04/15 11:39:13;;;;;;;;;2.00;2.00;;;;;19.92;43.60;101810.66;4805177;29;46136;-78
2022/04/15 11:41:46;;;;;;;;;2.00;2.00;;;;;19.93;43.76;101812.34;4805437;29;45605;-81
2022/04/15 11:44:13;;;;;;;;;2.00;2.00;;;;;19.93;43.36;101812.34;4788998;29;47151;-78
2022/04/15 11:46:39;;;;;;;;;1.25;1.25;;;;;19.88;43.14;101811.94;4805244;29;45940;-78
2022/04/15 11:49:15;;;;;;;;;2.00;1.00;;;;;19.74;43.39;101785.75;4805492;29;45610;-81
2022/04/15 11:51:46;;;;;;;;;3.00;2.00;;;;;19.80;43.42;101787.03;4805479;29;45709;-80
2022/04/15 11:54:11;;;;;;;;;2.00;2.00;;;;;19.86;43.52;101797.13;4804445;29;46536;-79
2022/04/15 11:56:39;;;;;;;;;2.00;2.00;;;;;19.98;43.22;101807.44;4805181;29;45750;-79
2022/04/15 11:59:08;;;;;;;;;1.25;1.00;;;;;20.02;42.39;101802.72;4805299;29;45682;-79
2022/04/15 12:01:34;;;;;;;;;3.00;2.00;;;;;20.00;42.44;101796.69;4805852;29;45747;-80
2022/04/15 12:04:01;;;;;;;;;1.25;1.00;;;;;19.90;42.88;101778.06;4805837;29;46383;-77
2022/04/15 12:06:29;;;;;;;;;2.00;2.00;;;;;19.85;42.76;101769.66;4789216;29;47186;-81
2022/04/15 12:08:56;;;;;;;;;2.00;2.00;;;;;20.07;42.88;101798.66;4805536;29;45710;-82
2022/04/15 12:11:24;;;;;;;;;4.00;3.00;;;;;20.11;42.64;101796.53;4788716;29;45631;-85
2022/04/15 12:14:00;;;;;;;;;2.75;2.75;;;;;20.01;42.64;101785.91;4804751;29;46130;-79
2022/04/15 12:16:29;;;;;;;;;3.00;3.00;;;;;20.14;42.80;101806.88;4804983;29;45533;-80
2022/04/15 12:18:56;;;;;;;;;3.75;2.50;;;;;20.13;42.91;101814.00;4804645;29;45702;-78
2022/04/15 12:21:25;;;;;;;;;4.00;3.00;;;;;20.14;43.03;101790.91;4804989;29;45497;-81
2022/04/15 12:24:04;;;;;;;;;2.00;2.00;;;;;20.01;42.75;101769.94;4788520;29;47803;-79
2022/04/15 12:26:45;;;;;;;;;2.00;2.00;;;;;20.19;42.26;101801.16;4804782;29;45702;-81
2022/04/15 12:32:38;;;;;;;;;2.75;2.00;;;;;20.22;42.29;101790.22;4804616;29;45577;-79
2022/04/15 12:35:10;;;;;;;;;2.50;2.00;;;;;20.21;42.38;101799.16;4805125;29;45687;-81
2022/04/15 12:37:50;;;;;;;;;3.75;3.00;;;;;20.27;42.10;101787.97;4804837;29;46583;-85
2022/04/15 12:43:37;;;;;;;;;3.50;2.00;;;;;20.28;41.64;101779.00;4804944;29;45904;-81
2022/04/15 12:46:02;;;;;;;;;3.50;2.75;;;;;20.34;41.88;101786.44;4804978;29;46488;-82
2022/04/15 12:48:28;;;;;;;;;1.25;1.25;;;;;20.40;41.67;101792.03;4805096;29;45639;-84